Jonquiere, Canada
Current Conditions -  °F | °C
As of 7:00 AM on Monday 24 Nov 2014 (Local Time) from CYBG Reporting Station
Overcast Overcast  
Wind Chill: 26°   Ceiling: 7500
Heat Index: 37°   Visibility: 15mi
Dew Point: 34°   Wind: 23mph
Humidity: 87%   Direction: 90°E
Pressure: 29.71"   Gusts: 32mph
Location:  48.41°N, 71.25°W
Report Text: CYBG 241200Z 09020G28KT 15SM SCT060 BKN075 OVC100 03/01 A2971 RMK SC3AC4AC1 SLP071
Loading
Personal Weather Stations






























Interactive Weather Map New forecast layout! Learn more

10-Day Weather Forecast

Advertisements
Track Severe Weather on mobile